Time;durP1;ratioP1;P1;durP2;ratioP2;P2;SDS_P1;SDS_P2;PMS_P1;PMS_P2;Temp;Humidity;BMP_temperature;BMP_pressure;BME280_temperature;BME280_humidity;BME280_pressure;Samples;Min_cycle;Max_cycle;Signal;HPM_P1;HPM_P2
2023/08/31 00:00:10;;;;;;;;;;;;;;;-144.99;100.00;52342.09;5026594;28;19986;-63
2023/08/31 00:02:36;;;;;;;;;;;;;;;-144.99;100.00;52370.63;5028840;28;20082;-66
2023/08/31 00:05:04;;;;;;;;;;;;;;;-144.99;100.00;52366.56;5028356;28;19970;-66
2023/08/31 00:07:30;;;;;;;;;;;;;;;-144.99;100.00;52382.88;5027041;28;19945;-65
2023/08/31 00:09:58;;;;;;;;;;;;;;;-144.99;100.00;52372.69;5023993;28;20351;-65
2023/08/31 00:12:24;;;;;;;;;;;;;;;-144.99;100.00;52370.63;5022877;28;20092;-66
2023/08/31 00:14:51;;;;;;;;;;;;;;;-144.99;100.00;52374.72;5021198;28;20093;-66
2023/08/31 00:17:19;;;;;;;;;;;;;;;-144.99;100.00;52378.78;5021028;28;19998;-66
2023/08/31 00:19:45;;;;;;;;;;;;;;;-144.99;100.00;52354.34;5026284;28;20033;-66
2023/08/31 00:22:12;;;;;;;;;;;;;;;-144.99;100.00;52350.25;5021161;28;20026;-64
2023/08/31 00:24:38;;;;;;;;;;;;;;;-144.99;100.00;52378.78;5024388;28;19972;-62
2023/08/31 00:27:06;;;;;;;;;;;;;;;-144.99;100.00;52399.19;5023062;28;20370;-62
2023/08/31 00:29:33;;;;;;;;;;;;;;;-144.99;100.00;52395.09;5027152;28;19979;-63
2023/08/31 00:31:59;;;;;;;;;;;;;;;-144.99;100.00;52368.59;5025237;28;20040;-63
2023/08/31 00:34:27;;;;;;;;;;;;;;;-144.99;100.00;52346.19;5024781;28;20391;-62
2023/08/31 00:36:53;;;;;;;;;;;;;;;-144.99;100.00;52354.34;5018771;28;20409;-62
2023/08/31 00:39:20;;;;;;;;;;;;;;;-144.99;100.00;52384.91;5027187;28;19940;-67
2023/08/31 00:41:47;;;;;;;;;;;;;;;-144.99;100.00;52338.03;5024183;28;20028;-65
2023/08/31 00:44:13;;;;;;;;;;;;;;;-144.99;100.00;52354.34;5024945;28;19939;-64
2023/08/31 00:46:41;;;;;;;;;;;;;;;-144.99;100.00;52331.91;5021620;28;20026;-65
2023/08/31 00:49:08;;;;;;;;;;;;;;;-144.99;100.00;52378.78;5021320;28;19990;-64
2023/08/31 00:51:36;;;;;;;;;;;;;;;-144.99;100.00;52407.31;5021288;28;19942;-64
2023/08/31 00:54:05;;;;;;;;;;;;;;;-144.99;100.00;52384.91;5015587;28;19968;-67
2023/08/31 00:56:32;;;;;;;;;;;;;;;-144.99;100.00;52358.41;5021659;28;20382;-64
2023/08/31 00:58:58;;;;;;;;;;;;;;;-144.99;100.00;52384.91;5024316;28;20471;-66
2023/08/31 01:01:28;;;;;;;;;;;;;;;-144.99;100.00;52388.97;5025831;28;20039;-67
2023/08/31 01:04:00;;;;;;;;;;;;;;;-144.99;100.00;52342.09;5022689;28;20446;-65
2023/08/31 01:06:34;;;;;;;;;;;;;;;-144.99;100.00;52342.09;5019380;28;20380;-65
2023/08/31 01:09:08;;;;;;;;;;;;;;;-144.99;100.00;52376.75;5024584;28;20040;-65
2023/08/31 01:11:37;;;;;;;;;;;;;;;-144.99;100.00;52386.94;5016768;28;19941;-65
2023/08/31 01:14:08;;;;;;;;;;;;;;;-144.99;100.00;52358.41;5017584;28;19960;-63
2023/08/31 01:16:35;;;;;;;;;;;;;;;-144.99;100.00;52399.19;5015963;28;20402;-62
2023/08/31 01:19:04;;;;;;;;;;;;;;;-144.99;100.00;52403.25;5023289;28;19968;-64
2023/08/31 01:21:34;;;;;;;;;;;;;;;-144.99;100.00;52354.34;5022565;28;19949;-62
2023/08/31 01:24:02;;;;;;;;;;;;;;;-144.99;100.00;52362.50;5025502;28;20038;-62
2023/08/31 01:26:29;;;;;;;;;;;;;;;-144.99;100.00;52354.34;5023125;28;19942;-63
2023/08/31 01:28:56;;;;;;;;;;;;;;;-144.99;100.00;52374.72;5022881;28;20409;-65
2023/08/31 01:31:22;;;;;;;;;;;;;;;-144.99;100.00;52342.09;5026365;28;20020;-65
2023/08/31 01:33:49;;;;;;;;;;;;;;;-144.99;100.00;52388.97;5020104;28;19962;-63
2023/08/31 01:36:20;;;;;;;;;;;;;;;-144.99;100.00;52374.72;5022881;28;20330;-63
2023/08/31 01:38:49;;;;;;;;;;;;;;;-144.99;100.00;52386.94;5021522;28;20040;-65
2023/08/31 01:41:18;;;;;;;;;;;;;;;-144.99;100.00;52374.72;5021590;28;20006;-64
2023/08/31 01:43:45;;;;;;;;;;;;;;;-144.99;100.00;52391.03;5018135;28;20337;-68
2023/08/31 01:46:12;;;;;;;;;;;;;;;-144.99;100.00;52388.97;5018648;28;19949;-65
2023/08/31 01:48:39;;;;;;;;;;;;;;;-144.99;100.00;52386.94;5023534;28;19950;-68
2023/08/31 01:51:06;;;;;;;;;;;;;;;-144.99;100.00;52415.47;5027533;28;19945;-69
2023/08/31 01:53:32;;;;;;;;;;;;;;;-144.99;100.00;52350.25;5026850;28;19971;-65
2023/08/31 01:55:59;;;;;;;;;;;;;;;-144.99;100.00;52388.97;5027183;28;20396;-66
2023/08/31 01:58:26;;;;;;;;;;;;;;;-144.99;100.00;52415.47;5025934;28;19987;-67
2023/08/31 02:00:53;;;;;;;;;;;;;;;-144.99;100.00;52403.25;5030467;28;19943;-67
2023/08/31 02:03:19;;;;;;;;;;;;;;;-144.99;100.00;52374.72;5030710;28;19954;-65
2023/08/31 02:05:46;;;;;;;;;;;;;;;-144.99;100.00;52370.63;5030293;28;19999;-65
2023/08/31 02:08:12;;;;;;;;;;;;;;;-144.99;100.00;52417.53;5030204;28;20006;-68
2023/08/31 02:10:39;;;;;;;;;;;;;;;-144.99;100.00;52374.72;5031153;28;20453;-68
2023/08/31 02:13:05;;;;;;;;;;;;;;;-144.99;100.00;52366.56;5027093;28;19957;-66
2023/08/31 02:15:33;;;;;;;;;;;;;;;-144.99;100.00;52378.78;5029893;28;20036;-68
2023/08/31 02:17:59;;;;;;;;;;;;;;;-144.99;100.00;52378.78;5028028;28;19952;-68
2023/08/31 02:20:26;;;;;;;;;;;;;;;-144.99;100.00;52362.50;5028835;28;19974;-68
2023/08/31 02:22:53;;;;;;;;;;;;;;;-144.99;100.00;52378.78;5026140;28;20372;-68
2023/08/31 02:25:19;;;;;;;;;;;;;;;-144.99;100.00;52366.56;5017853;28;20036;-67
2023/08/31 02:27:46;;;;;;;;;;;;;;;-144.99;100.00;52374.72;5027808;28;20041;-69
2023/08/31 02:30:12;;;;;;;;;;;;;;;-144.99;100.00;52407.31;5023641;28;20355;-67
2023/08/31 02:32:40;;;;;;;;;;;;;;;-144.99;100.00;52333.94;5023885;28;20017;-64
2023/08/31 02:35:07;;;;;;;;;;;;;;;-144.99;100.00;52395.09;5023160;28;20058;-64
2023/08/31 02:37:33;;;;;;;;;;;;;;;-144.99;100.00;52391.03;5029697;28;20124;-65
2023/08/31 02:40:00;;;;;;;;;;;;;;;-144.99;100.00;52391.03;5027237;28;20357;-64
2023/08/31 02:42:26;;;;;;;;;;;;;;;-144.99;100.00;52372.69;5023529;28;20451;-65
2023/08/31 02:44:53;;;;;;;;;;;;;;;-144.99;100.00;52391.03;5026567;28;20382;-65
2023/08/31 02:47:20;;;;;;;;;;;;;;;-144.99;100.00;52354.34;5021244;28;19940;-67
2023/08/31 02:49:48;;;;;;;;;;;;;;;-144.99;100.00;52374.72;5022166;28;20037;-68
2023/08/31 02:52:15;;;;;;;;;;;;;;;-144.99;100.00;52350.25;5024783;28;20046;-65
2023/08/31 02:54:41;;;;;;;;;;;;;;;-144.99;100.00;52407.31;5026002;28;19994;-66
2023/08/31 02:57:08;;;;;;;;;;;;;;;-144.99;100.00;52364.53;5023453;28;19949;-67
2023/08/31 02:59:35;;;;;;;;;;;;;;;-144.99;100.00;52415.47;5022632;28;20396;-66
2023/08/31 03:02:02;;;;;;;;;;;;;;;-144.99;100.00;52384.91;5023945;28;19991;-64
2023/08/31 03:04:28;;;;;;;;;;;;;;;-144.99;100.00;52391.03;5024685;28;19942;-63
2023/08/31 03:06:56;;;;;;;;;;;;;;;-144.99;100.00;52413.44;5024855;28;20370;-60
2023/08/31 03:09:23;;;;;;;;;;;;;;;-144.99;100.00;52362.50;5018939;28;20382;-60
2023/08/31 03:11:49;;;;;;;;;;;;;;;-144.99;100.00;52366.56;5022560;28;19944;-60
2023/08/31 03:14:15;;;;;;;;;;;;;;;-144.99;100.00;52399.19;5028252;28;20066;-59
2023/08/31 03:16:42;;;;;;;;;;;;;;;-144.99;100.00;52350.25;5019311;28;19989;-59
2023/08/31 03:19:08;;;;;;;;;;;;;;;-144.99;100.00;52354.34;5024479;28;20000;-59
2023/08/31 03:21:35;;;;;;;;;;;;;;;-144.99;100.00;52399.19;5025523;28;19981;-59
2023/08/31 03:24:03;;;;;;;;;;;;;;;-144.99;100.00;52386.94;5017646;28;20010;-60
2023/08/31 03:26:30;;;;;;;;;;;;;;;-144.99;100.00;52407.31;5028689;28;20012;-60
2023/08/31 03:28:56;;;;;;;;;;;;;;;-144.99;100.00;52386.94;5028532;28;19945;-60
2023/08/31 03:31:23;;;;;;;;;;;;;;;-144.99;100.00;52403.25;5024570;28;20275;-60
2023/08/31 03:33:50;;;;;;;;;;;;;;;-144.99;100.00;52382.88;5027753;28;20044;-60
2023/08/31 03:36:17;;;;;;;;;;;;;;;-144.99;100.00;52388.97;5020415;28;20009;-60
2023/08/31 03:38:43;;;;;;;;;;;;;;;-144.99;100.00;52395.09;5022515;28;19937;-60
2023/08/31 03:41:11;;;;;;;;;;;;;;;-144.99;100.00;52399.19;5025654;28;20055;-60
2023/08/31 03:43:38;;;;;;;;;;;;;;;-144.99;100.00;52386.94;5026056;28;20028;-60
2023/08/31 03:46:04;;;;;;;;;;;;;;;-144.99;100.00;52409.38;5027275;28;20074;-61
2023/08/31 03:48:31;;;;;;;;;;;;;;;-144.99;100.00;52374.72;5025486;28;20052;-60
2023/08/31 03:50:57;;;;;;;;;;;;;;;-144.99;100.00;52374.72;5028331;28;20567;-62
2023/08/31 03:53:24;;;;;;;;;;;;;;;-144.99;100.00;52374.72;5028290;28;20013;-62
2023/08/31 03:55:50;;;;;;;;;;;;;;;-144.99;100.00;52419.56;5027640;28;20033;-62
2023/08/31 03:58:18;;;;;;;;;;;;;;;-144.99;100.00;52386.94;5025841;28;20050;-62
2023/08/31 04:00:45;;;;;;;;;;;;;;;-144.99;100.00;52395.09;5020644;28;19939;-61
2023/08/31 04:03:12;;;;;;;;;;;;;;;-144.99;100.00;52386.94;5028309;28;19989;-66
2023/08/31 04:05:38;;;;;;;;;;;;;;;-144.99;100.00;52391.03;5028225;28;19940;-65
2023/08/31 04:08:05;;;;;;;;;;;;;;;-144.99;100.00;52407.31;5026723;28;20053;-65
2023/08/31 04:10:32;;;;;;;;;;;;;;;-144.99;100.00;52425.66;5024238;28;20010;-66
2023/08/31 04:12:59;;;;;;;;;;;;;;;-144.99;100.00;52399.19;5021230;28;20049;-67
2023/08/31 04:15:27;;;;;;;;;;;;;;;-144.99;100.00;52391.03;5027913;28;20397;-66
2023/08/31 04:17:53;;;;;;;;;;;;;;;-144.99;100.00;52431.78;5029087;28;20305;-66
2023/08/31 04:20:20;;;;;;;;;;;;;;;-144.99;100.00;52448.09;5028005;28;19940;-65
2023/08/31 04:22:46;;;;;;;;;;;;;;;-144.99;100.00;52362.50;5026804;28;20084;-64
2023/08/31 04:25:13;;;;;;;;;;;;;;;-144.99;100.00;52423.63;5017102;28;19994;-64
2023/08/31 04:27:40;;;;;;;;;;;;;;;-144.99;100.00;52391.03;5027609;28;19974;-64
2023/08/31 04:30:07;;;;;;;;;;;;;;;-144.99;100.00;52382.88;5028258;28;19949;-67
2023/08/31 04:32:36;;;;;;;;;;;;;;;-144.99;100.00;52415.47;5016273;28;20081;-67
2023/08/31 04:35:03;;;;;;;;;;;;;;;-144.99;100.00;52411.41;5022017;28;20039;-68
2023/08/31 04:37:30;;;;;;;;;;;;;;;-144.99;100.00;52386.94;5026235;28;19943;-68
2023/08/31 04:39:57;;;;;;;;;;;;;;;-144.99;100.00;52423.63;5024301;28;19949;-69
2023/08/31 04:42:24;;;;;;;;;;;;;;;-144.99;100.00;52407.31;5024120;28;20381;-68
2023/08/31 04:44:50;;;;;;;;;;;;;;;-144.99;100.00;52382.88;5024282;28;20024;-69
2023/08/31 04:47:17;;;;;;;;;;;;;;;-144.99;100.00;52407.31;5025508;28;20036;-68
2023/08/31 04:49:45;;;;;;;;;;;;;;;-144.99;100.00;52423.63;5024314;28;20313;-70
2023/08/31 04:52:11;;;;;;;;;;;;;;;-144.99;100.00;52415.47;5041219;22;20051;-68
2023/08/31 04:54:38;;;;;;;;;;;;;;;-144.99;100.00;52407.31;5041498;28;20067;-68
2023/08/31 04:57:07;;;;;;;;;;;;;;;-144.99;100.00;52370.63;5035015;28;20040;-68
2023/08/31 04:59:33;;;;;;;;;;;;;;;-144.99;100.00;52419.56;5034156;28;19945;-69
2023/08/31 05:02:00;;;;;;;;;;;;;;;-144.99;100.00;52427.72;5043308;28;19956;-69
2023/08/31 05:04:28;;;;;;;;;;;;;;;-144.99;100.00;52403.25;5029061;28;19943;-69
2023/08/31 05:06:56;;;;;;;;;;;;;;;-144.99;100.00;52388.97;5027002;28;20323;-68
2023/08/31 05:09:22;;;;;;;;;;;;;;;-144.99;100.00;52382.88;5024163;28;19980;-68
2023/08/31 05:11:49;;;;;;;;;;;;;;;-144.99;100.00;52409.38;5018560;28;19951;-70
2023/08/31 05:14:15;;;;;;;;;;;;;;;-144.99;100.00;52386.94;5014695;28;19958;-71
2023/08/31 05:16:42;;;;;;;;;;;;;;;-144.99;100.00;52378.78;5027992;28;20297;-72
2023/08/31 05:19:09;;;;;;;;;;;;;;;-144.99;100.00;52386.94;5025381;28;19946;-71
2023/08/31 05:21:35;;;;;;;;;;;;;;;-144.99;100.00;52366.56;5030490;28;20378;-70
2023/08/31 05:24:03;;;;;;;;;;;;;;;-144.99;100.00;52411.41;5023636;28;20007;-72
2023/08/31 05:26:29;;;;;;;;;;;;;;;-144.99;100.00;52415.47;4675477;28;10000258;-73
2023/08/31 05:28:56;;;;;;;;;;;;;;;-144.99;100.00;52415.47;5035460;28;19986;-73
2023/08/31 05:31:22;;;;;;;;;;;;;;;-144.99;100.00;52395.09;5027106;28;19943;-74
2023/08/31 05:33:49;;;;;;;;;;;;;;;-144.99;100.00;52388.97;5027453;28;20084;-73
2023/08/31 05:36:15;;;;;;;;;;;;;;;-144.99;100.00;52407.31;5027490;28;19944;-72
2023/08/31 05:38:42;;;;;;;;;;;;;;;-144.99;100.00;52370.63;5025106;28;19941;-73
2023/08/31 05:41:11;;;;;;;;;;;;;;;-144.99;100.00;52403.25;5026970;28;19975;-73
2023/08/31 05:43:39;;;;;;;;;;;;;;;-144.99;100.00;52399.19;5023846;28;19970;-73
2023/08/31 05:46:06;;;;;;;;;;;;;;;-144.99;100.00;52386.94;5020827;28;19940;-73
2023/08/31 05:48:33;;;;;;;;;;;;;;;-144.99;100.00;52378.78;5025126;28;19988;-75
2023/08/31 05:50:59;;;;;;;;;;;;;;;-144.99;100.00;52354.34;5016652;28;19986;-73
2023/08/31 05:53:26;;;;;;;;;;;;;;;-144.99;100.00;52370.63;5026386;28;20361;-71
2023/08/31 05:55:52;;;;;;;;;;;;;;;-144.99;100.00;52354.34;5026693;28;20043;-74
2023/08/31 05:58:20;;;;;;;;;;;;;;;-144.99;100.00;52399.19;5021574;28;20033;-74
2023/08/31 06:00:48;;;;;;;;;;;;;;;-144.99;100.00;52399.19;5023123;28;19973;-74
2023/08/31 06:03:15;;;;;;;;;;;;;;;-144.99;100.00;52407.31;5020482;28;20040;-73
2023/08/31 06:05:41;;;;;;;;;;;;;;;-144.99;100.00;52403.25;5029129;28;19954;-73
2023/08/31 06:08:08;;;;;;;;;;;;;;;-144.99;100.00;52370.63;5019923;28;19945;-72
2023/08/31 06:10:34;;;;;;;;;;;;;;;-144.99;100.00;52362.50;5025267;28;19950;-73
2023/08/31 06:13:01;;;;;;;;;;;;;;;-144.99;100.00;52358.41;5027664;28;20059;-72
2023/08/31 06:15:29;;;;;;;;;;;;;;;-144.99;100.00;52378.78;5031199;28;20402;-75
2023/08/31 06:17:55;;;;;;;;;;;;;;;-144.99;100.00;52366.56;5027433;28;19990;-73
2023/08/31 06:20:22;;;;;;;;;;;;;;;-144.99;100.00;52358.41;5029462;28;20302;-73
2023/08/31 06:22:48;;;;;;;;;;;;;;;-144.99;100.00;52374.72;5028883;28;19987;-73
2023/08/31 06:25:18;;;;;;;;;;;;;;;-144.99;100.00;52370.63;5024596;28;20465;-73
2023/08/31 06:27:44;;;;;;;;;;;;;;;-144.99;100.00;52342.09;4683012;28;10000229;-73
2023/08/31 06:30:15;;;;;;;;;;;;;;;-144.99;100.00;52362.50;5022077;28;20046;-73
2023/08/31 06:32:43;;;;;;;;;;;;;;;-144.99;100.00;52386.94;5027021;28;19964;-76
2023/08/31 06:35:10;;;;;;;;;;;;;;;-144.99;100.00;52395.09;5023194;28;19995;-73
2023/08/31 06:37:37;;;;;;;;;;;;;;;-144.99;100.00;52382.88;5024658;28;19989;-74
2023/08/31 06:40:03;;;;;;;;;;;;;;;-144.99;100.00;52411.41;5042878;28;20050;-73
2023/08/31 06:42:30;;;;;;;;;;;;;;;-144.99;100.00;52376.75;5040146;28;19956;-73
2023/08/31 06:44:56;;;;;;;;;;;;;;;-144.99;100.00;52382.88;5022976;28;19993;-73
2023/08/31 06:47:23;;;;;;;;;;;;;;;-144.99;100.00;52380.84;5023608;28;20042;-73
2023/08/31 06:49:52;;;;;;;;;;;;;;;-144.99;100.00;52391.03;5028225;28;19974;-72
2023/08/31 06:52:19;;;;;;;;;;;;;;;-144.99;100.00;52358.41;5024641;28;19963;-73
2023/08/31 06:54:45;;;;;;;;;;;;;;;-144.99;100.00;52370.63;4676547;28;10000089;-72
2023/08/31 06:57:12;;;;;;;;;;;;;;;-144.99;100.00;52395.09;5023100;28;19951;-72
2023/08/31 06:59:38;;;;;;;;;;;;;;;-144.99;100.00;52342.09;5018447;28;19982;-72
2023/08/31 07:02:05;;;;;;;;;;;;;;;-144.99;100.00;52362.50;5024352;28;20020;-72
2023/08/31 07:04:31;;;;;;;;;;;;;;;-144.99;98.86;52364.53;5026660;28;19945;-74
2023/08/31 07:06:59;;;;;;;;;;;;;;;-144.99;98.51;52386.94;5023624;28;20343;-73
2023/08/31 07:09:26;;;;;;;;;;;;;;;-144.99;98.47;52370.63;5017515;28;20058;-72
2023/08/31 07:11:53;;;;;;;;;;;;;;;-144.99;98.21;52362.50;5021567;28;19977;-72
2023/08/31 07:14:19;;;;;;;;;;;;;;;-144.99;98.05;52362.50;5020623;28;20009;-74
2023/08/31 07:16:46;;;;;;;;;;;;;;;-144.99;97.16;52380.84;5017390;28;19979;-73
2023/08/31 07:19:12;;;;;;;;;;;;;;;-144.99;96.93;52358.41;5023700;28;19949;-71
2023/08/31 07:21:39;;;;;;;;;;;;;;;-144.99;97.22;52346.19;5023304;28;20027;-73
2023/08/31 07:24:07;;;;;;;;;;;;;;;-144.99;96.17;52354.34;5025003;28;19941;-73
2023/08/31 07:26:34;;;;;;;;;;;;;;;-144.99;94.93;52329.88;5023099;28;20005;-73
2023/08/31 07:29:01;;;;;;;;;;;;;;;-144.99;94.71;52336.00;5014922;28;19987;-73
2023/08/31 07:31:27;;;;;;;;;;;;;;;-144.99;94.03;52329.88;5020892;28;19961;-72
2023/08/31 07:33:54;;;;;;;;;;;;;;;-144.99;93.13;52342.09;5026016;28;20505;-73
2023/08/31 07:36:20;;;;;;;;;;;;;;;-144.99;92.65;52348.22;5019685;28;20039;-72
2023/08/31 07:38:47;;;;;;;;;;;;;;;-144.99;92.86;52346.19;5024414;28;20029;-73
2023/08/31 07:41:15;;;;;;;;;;;;;;;-144.99;92.75;52366.56;5027297;28;19942;-73
2023/08/31 07:43:41;;;;;;;;;;;;;;;-144.99;91.50;52331.91;5017857;28;20009;-72
2023/08/31 07:46:08;;;;;;;;;;;;;;;-144.99;92.21;52342.09;5024077;28;20028;-73
2023/08/31 07:48:34;;;;;;;;;;;;;;;-144.99;91.74;52346.19;5025334;28;19967;-72
2023/08/31 07:51:01;;;;;;;;;;;;;;;-144.99;90.65;52370.63;5019775;28;19948;-73
2023/08/31 07:53:27;;;;;;;;;;;;;;;-144.99;90.41;52323.75;5020685;28;20375;-73
2023/08/31 07:55:55;;;;;;;;;;;;;;;-144.99;89.82;52356.38;5017455;28;19996;-72
2023/08/31 07:58:23;;;;;;;;;;;;;;;-144.99;89.84;52313.56;5022666;28;19949;-72
2023/08/31 08:00:49;;;;;;;;;;;;;;;-144.99;88.37;52346.19;5026669;28;20345;-73
2023/08/31 08:03:16;;;;;;;;;;;;;;;-144.99;87.82;52362.50;5020749;28;20044;-71
2023/08/31 08:05:42;;;;;;;;;;;;;;;-144.99;88.59;52305.41;5021438;28;20010;-72
2023/08/31 08:08:09;;;;;;;;;;;;;;;-144.99;87.95;52344.16;5021293;28;20489;-73
2023/08/31 08:10:35;;;;;;;;;;;;;;;-144.99;88.25;52325.81;5026352;28;19961;-73
2023/08/31 08:13:02;;;;;;;;;;;;;;;-144.99;86.69;52285.03;5019450;28;20054;-73
2023/08/31 08:15:30;;;;;;;;;;;;;;;-144.99;87.16;52350.25;5019916;28;19963;-73
2023/08/31 08:17:57;;;;;;;;;;;;;;;-144.99;88.04;52366.56;5024026;28;20052;-71
2023/08/31 08:20:24;;;;;;;;;;;;;;;-144.99;88.65;52350.25;5016716;28;19969;-71
2023/08/31 08:22:52;;;;;;;;;;;;;;;-144.99;87.97;52321.72;5016969;28;20326;-73
2023/08/31 08:25:18;;;;;;;;;;;;;;;-144.99;89.43;52366.56;5019665;28;20289;-73
2023/08/31 08:27:45;;;;;;;;;;;;;;;-144.99;89.09;52358.41;5024201;28;20344;-73
2023/08/31 08:30:11;;;;;;;;;;;;;;;-144.99;89.62;52358.41;5023954;28;19941;-73
2023/08/31 08:32:39;;;;;;;;;;;;;;;-144.99;90.35;52358.41;5022235;28;20004;-73
2023/08/31 08:35:06;;;;;;;;;;;;;;;-144.99;91.51;52358.41;5024942;28;19962;-72
2023/08/31 08:37:33;;;;;;;;;;;;;;;-144.99;90.56;52376.75;5023002;28;20028;-72
2023/08/31 08:40:00;;;;;;;;;;;;;;;-144.99;89.40;52358.41;5014130;28;19957;-72
2023/08/31 08:42:26;;;;;;;;;;;;;;;-144.99;89.40;52338.03;5026043;28;19965;-72
2023/08/31 08:44:53;;;;;;;;;;;;;;;-144.99;88.80;52354.34;5018100;28;19984;-73
2023/08/31 08:47:19;;;;;;;;;;;;;;;-144.99;89.68;52323.75;5022404;28;20017;-72
2023/08/31 08:49:48;;;;;;;;;;;;;;;-144.99;88.90;52342.09;5020782;28;20050;-72
2023/08/31 08:52:15;;;;;;;;;;;;;;;-144.99;88.18;52346.19;5025891;28;20028;-72
2023/08/31 08:54:42;;;;;;;;;;;;;;;-144.99;86.85;52358.41;5021934;28;20063;-72
2023/08/31 08:57:08;;;;;;;;;;;;;;;-144.99;86.89;52338.03;5018994;28;19988;-73
2023/08/31 08:59:35;;;;;;;;;;;;;;;-144.99;87.18;52301.34;5021285;28;19942;-73
2023/08/31 09:02:02;;;;;;;;;;;;;;;-144.99;87.04;52323.75;5026134;28;20363;-73
2023/08/31 09:04:30;;;;;;;;;;;;;;;-144.99;87.09;52327.84;5020195;28;19977;-73
2023/08/31 09:06:58;;;;;;;;;;;;;;;-144.99;87.49;52317.66;5012047;28;20048;-72
2023/08/31 09:09:24;;;;;;;;;;;;;;;-144.99;87.78;52342.09;5023155;28;20127;-73
2023/08/31 09:11:51;;;;;;;;;;;;;;;-144.99;86.25;52305.41;5025410;28;19984;-72
2023/08/31 09:14:18;;;;;;;;;;;;;;;-144.99;85.80;52325.81;5018534;28;20394;-72
2023/08/31 09:16:45;;;;;;;;;;;;;;;-144.99;84.96;52297.25;5022107;28;19966;-72
2023/08/31 09:19:19;;;;;;;;;;;;;;;-144.99;84.40;52321.72;5015334;28;20373;-74
2023/08/31 09:21:45;;;;;;;;;;;;;;;-144.99;83.83;52305.41;5025377;28;19938;-72
2023/08/31 09:24:14;;;;;;;;;;;;;;;-144.99;83.20;52319.69;5026067;28;19941;-73
2023/08/31 09:26:40;;;;;;;;;;;;;;;-144.99;83.64;52338.03;5018410;28;19980;-73
2023/08/31 09:29:07;;;;;;;;;;;;;;;-144.99;83.35;52297.25;5020040;28;20001;-73
2023/08/31 09:31:34;;;;;;;;;;;;;;;-144.99;83.47;52333.94;5025185;28;20034;-73
2023/08/31 09:34:00;;;;;;;;;;;;;;;-144.99;83.78;52295.22;5015817;28;20004;-73
2023/08/31 09:36:28;;;;;;;;;;;;;;;-144.99;82.30;52299.31;5019715;28;19958;-73
2023/08/31 09:38:57;;;;;;;;;;;;;;;-144.99;80.43;52331.91;5020148;28;20031;-73
2023/08/31 09:41:25;;;;;;;;;;;;;;;-144.99;81.28;52297.25;5019866;28;19940;-73
2023/08/31 09:43:52;;;;;;;;;;;;;;;-144.99;79.90;52311.53;5020141;28;20039;-73
2023/08/31 09:46:18;;;;;;;;;;;;;;;-144.99;78.80;52317.66;5017654;28;20057;-73
2023/08/31 09:48:45;;;;;;;;;;;;;;;-144.99;79.09;52333.94;5019342;28;20020;-75
2023/08/31 09:51:12;;;;;;;;;;;;;;;-144.99;80.09;52297.25;5016940;28;19941;-72
2023/08/31 09:53:38;;;;;;;;;;;;;;;-144.99;79.17;52289.13;5016032;28;19987;-73
2023/08/31 09:56:06;;;;;;;;;;;;;;;-144.99;78.84;52317.66;5020250;28;20511;-73
2023/08/31 09:58:34;;;;;;;;;;;;;;;-144.99;75.28;52262.63;5023967;28;19947;-73
2023/08/31 10:01:01;;;;;;;;;;;;;;;-144.99;75.27;52297.25;5017720;28;19943;-73
2023/08/31 10:03:29;;;;;;;;;;;;;;;-144.99;73.67;52309.50;5024899;28;19957;-73
2023/08/31 10:05:56;;;;;;;;;;;;;;;-144.99;73.01;52244.28;5017975;28;19991;-73
2023/08/31 10:08:24;;;;;;;;;;;;;;;-144.99;72.77;52244.28;5038014;28;19942;-75
2023/08/31 10:10:50;;;;;;;;;;;;;;;-144.99;72.12;52236.13;5047303;28;19971;-75
2023/08/31 10:13:17;;;;;;;;;;;;;;;-144.99;71.52;52244.28;5024536;28;19960;-74
2023/08/31 10:15:45;;;;;;;;;;;;;;;-144.99;70.87;52211.66;5022555;28;19960;-74
2023/08/31 10:18:11;;;;;;;;;;;;;;;-144.99;71.00;52260.56;5023881;28;19943;-74
2023/08/31 10:20:38;;;;;;;;;;;;;;;-144.99;72.05;52309.50;5028568;28;20001;-73
2023/08/31 10:23:05;;;;;;;;;;;;;;;-144.99;71.93;52289.13;5028310;28;20008;-73
2023/08/31 10:25:46;;;;;;;;;;;;;;;-144.99;72.26;52285.03;5024170;28;19963;-74
2023/08/31 10:28:17;;;;;;;;;;;;;;;-144.99;72.51;52305.41;5022814;28;19942;-73
2023/08/31 10:31:01;;;;;;;;;;;;;;;-144.99;72.70;52313.56;5028636;28;19999;-74
2023/08/31 10:33:27;;;;;;;;;;;;;;;-144.99;72.50;52223.88;5020472;28;20012;-73
2023/08/31 10:35:55;;;;;;;;;;;;;;;-144.99;71.96;52293.19;5027447;28;19961;-74
2023/08/31 10:38:26;;;;;;;;;;;;;;;-144.99;71.74;52276.88;5027548;28;20029;-74
2023/08/31 10:41:03;;;;;;;;;;;;;;;-144.99;72.08;52313.56;5022285;28;19984;-74
2023/08/31 10:43:43;;;;;;;;;;;;;;;-144.99;72.12;52179.06;5026905;28;20012;-73
2023/08/31 10:46:17;;;;;;;;;;;;;;;-144.99;70.89;52244.28;5020121;28;20000;-73
2023/08/31 10:48:53;;;;;;;;;;;;;;;-144.99;69.05;52138.28;5028905;28;19976;-73
2023/08/31 10:51:22;;;;;;;;;;;;;;;-144.99;67.89;52138.28;5019553;28;20095;-72
2023/08/31 10:53:48;;;;;;;;;;;;;;;-144.99;67.73;52248.34;5022759;28;20098;-74
2023/08/31 10:56:16;;;;;;;;;;;;;;;-144.99;67.45;52121.97;5023982;28;20061;-73
2023/08/31 10:58:44;;;;;;;;;;;;;;;-144.99;68.88;52260.56;5023753;28;19952;-73
2023/08/31 11:01:11;;;;;;;;;;;;;;;-144.99;69.10;52142.38;5024275;28;20303;-73
2023/08/31 11:03:52;;;;;;;;;;;;;;;-144.99;68.03;52111.78;5028817;28;19962;-72
2023/08/31 11:06:21;;;;;;;;;;;;;;;-144.99;67.62;52117.91;5024300;28;20458;-73
2023/08/31 11:08:48;;;;;;;;;;;;;;;-144.99;67.86;52109.75;5018241;28;19946;-73
2023/08/31 11:11:20;;;;;;;;;;;;;;;-144.99;65.21;52097.53;5030338;28;19948;-73
2023/08/31 11:13:46;;;;;;;;;;;;;;;-144.99;65.30;52121.97;5019770;28;20365;-73
2023/08/31 11:16:13;;;;;;;;;;;;;;;-144.99;65.12;52256.50;5028083;28;19961;-73
2023/08/31 11:18:39;;;;;;;;;;;;;;;-144.99;66.03;52244.28;5024631;28;19986;-73
2023/08/31 11:21:06;;;;;;;;;;;;;;;-144.99;66.16;52119.94;5022787;28;19970;-73
2023/08/31 11:23:35;;;;;;;;;;;;;;;-144.99;65.25;52111.78;5022232;28;19965;-73
2023/08/31 11:26:03;;;;;;;;;;;;;;;-144.99;64.28;52201.47;5026909;28;20034;-72
2023/08/31 11:28:34;;;;;;;;;;;;;;;-144.99;64.19;52081.22;5017634;28;20005;-74
2023/08/31 11:31:00;;;;;;;;;;;;;;;-144.99;63.87;52138.28;5022695;28;20047;-72
2023/08/31 11:33:32;;;;;;;;;;;;;;;-144.99;63.45;52064.91;5023910;28;20050;-72
2023/08/31 11:35:59;;;;;;;;;;;;;;;-144.99;62.93;51991.56;5025975;28;19966;-74
2023/08/31 11:38:26;;;;;;;;;;;;;;;-144.99;62.75;52223.88;5021964;28;19996;-73
2023/08/31 11:40:58;;;;;;;;;;;;;;;-144.99;62.46;52081.22;5024212;28;19983;-72
2023/08/31 11:43:25;;;;;;;;;;;;;;;-144.99;63.11;52199.44;5029345;28;20052;-74
2023/08/31 11:45:51;;;;;;;;;;;;;;;-144.99;62.91;52236.13;5017888;28;20032;-73
2023/08/31 11:48:18;;;;;;;;;;;;;;;-144.99;63.71;52166.81;5012010;28;20426;-73
2023/08/31 11:50:45;;;;;;;;;;;;;;;-144.99;63.17;52174.97;5021000;28;20374;-73
2023/08/31 11:53:11;;;;;;;;;;;;;;;-144.99;63.51;52183.13;5027252;28;19964;-74
2023/08/31 11:55:49;;;;;;;;;;;;;;;-144.99;64.47;52262.63;5027518;28;20490;-72
2023/08/31 11:58:17;;;;;;;;;;;;;;;-144.99;64.95;52268.72;5024842;28;19953;-71
2023/08/31 12:00:46;;;;;;;;;;;;;;;-144.99;66.53;52301.34;5022310;28;19947;-71
2023/08/31 12:03:13;;;;;;;;;;;;;;;-144.99;68.36;52338.03;5024974;28;19958;-71
2023/08/31 12:05:46;;;;;;;;;;;;;;;-144.99;69.04;52329.88;5020046;28;20002;-71
2023/08/31 12:08:12;;;;;;;;;;;;;;;-144.99;70.63;52407.31;5022951;28;19940;-72
2023/08/31 12:10:41;;;;;;;;;;;;;;;-144.99;72.16;52358.41;5016875;28;19949;-71
2023/08/31 12:13:12;;;;;;;;;;;;;;;-144.99;72.68;52386.94;5021264;28;19978;-71
2023/08/31 12:15:40;;;;;;;;;;;;;;;-144.99;73.70;52423.63;5033079;28;19979;-71
2023/08/31 12:18:10;;;;;;;;;;;;;;;-144.99;74.00;52399.19;5021575;28;19950;-71
2023/08/31 12:20:43;;;;;;;;;;;;;;;-144.99;74.35;52391.03;5016865;28;19987;-72